sensor_id;sensor_type;location;lat;lon;timestamp;pressure;altitude;pressure_sealevel;temperature;humidity
59315;BME280;46521;50.160;20.802;2022-10-16T00:00:00;99916.07;;;11.87;65.92
59315;BME280;46521;50.160;20.802;2022-10-16T00:10:02;99910.13;;;11.85;66.01
59315;BME280;46521;50.160;20.802;2022-10-16T00:20:04;99923.88;;;11.80;66.31
59315;BME280;46521;50.160;20.802;2022-10-16T00:30:07;99932.81;;;11.79;66.48
59315;BME280;46521;50.160;20.802;2022-10-16T00:40:09;99935.30;;;11.81;66.90
59315;BME280;46521;50.160;20.802;2022-10-16T01:00:25;99946.52;;;11.91;66.94
59315;BME280;46521;50.160;20.802;2022-10-16T01:10:40;99954.64;;;11.89;67.28
59315;BME280;46521;50.160;20.802;2022-10-16T01:31:02;99951.17;;;11.97;67.38
59315;BME280;46521;50.160;20.802;2022-10-16T01:41:09;99941.56;;;12.04;67.89
59315;BME280;46521;50.160;20.802;2022-10-16T01:51:14;99946.83;;;12.13;68.20
59315;BME280;46521;50.160;20.802;2022-10-16T02:01:18;99959.23;;;12.20;67.71
59315;BME280;46521;50.160;20.802;2022-10-16T02:11:22;99972.32;;;12.22;67.74
59315;BME280;46521;50.160;20.802;2022-10-16T02:21:27;99970.99;;;12.26;68.21
59315;BME280;46521;50.160;20.802;2022-10-16T02:31:32;99971.98;;;12.25;67.83
59315;BME280;46521;50.160;20.802;2022-10-16T02:41:35;99975.11;;;12.29;68.29
59315;BME280;46521;50.160;20.802;2022-10-16T02:51:37;99974.59;;;12.33;68.20
59315;BME280;46521;50.160;20.802;2022-10-16T03:01:38;99972.45;;;12.37;68.25
59315;BME280;46521;50.160;20.802;2022-10-16T03:11:40;99982.20;;;12.36;68.74
59315;BME280;46521;50.160;20.802;2022-10-16T03:21:41;99970.44;;;12.39;68.59
59315;BME280;46521;50.160;20.802;2022-10-16T03:31:42;99986.83;;;12.42;68.96
59315;BME280;46521;50.160;20.802;2022-10-16T03:41:43;99995.13;;;12.48;68.58
59315;BME280;46521;50.160;20.802;2022-10-16T03:51:45;100001.72;;;12.52;68.60
59315;BME280;46521;50.160;20.802;2022-10-16T04:01:46;100004.67;;;12.57;68.48
59315;BME280;46521;50.160;20.802;2022-10-16T04:11:48;100021.44;;;12.57;68.48
59315;BME280;46521;50.160;20.802;2022-10-16T04:21:49;100026.41;;;12.60;68.63
59315;BME280;46521;50.160;20.802;2022-10-16T04:31:51;100030.52;;;12.63;68.58
59315;BME280;46521;50.160;20.802;2022-10-16T04:41:52;100031.84;;;12.67;69.25
59315;BME280;46521;50.160;20.802;2022-10-16T04:51:53;100033.81;;;12.73;68.94
59315;BME280;46521;50.160;20.802;2022-10-16T05:01:55;100035.95;;;12.78;68.62
59315;BME280;46521;50.160;20.802;2022-10-16T05:11:56;100033.76;;;12.82;69.08
59315;BME280;46521;50.160;20.802;2022-10-16T05:21:57;100048.52;;;12.84;68.99
59315;BME280;46521;50.160;20.802;2022-10-16T05:31:58;100064.63;;;12.83;68.75
59315;BME280;46521;50.160;20.802;2022-10-16T05:42:00;100076.06;;;12.83;68.93
59315;BME280;46521;50.160;20.802;2022-10-16T05:52:01;100082.69;;;12.87;69.17
59315;BME280;46521;50.160;20.802;2022-10-16T06:02:03;100089.45;;;12.98;69.46
59315;BME280;46521;50.160;20.802;2022-10-16T06:12:04;100093.03;;;13.13;69.06
59315;BME280;46521;50.160;20.802;2022-10-16T06:22:06;100100.72;;;13.63;69.04
59315;BME280;46521;50.160;20.802;2022-10-16T06:32:07;100108.48;;;14.64;68.49
59315;BME280;46521;50.160;20.802;2022-10-16T06:42:09;100117.89;;;15.26;67.69
59315;BME280;46521;50.160;20.802;2022-10-16T06:52:10;100141.28;;;16.03;66.96
59315;BME280;46521;50.160;20.802;2022-10-16T07:02:12;100140.95;;;16.42;66.79
59315;BME280;46521;50.160;20.802;2022-10-16T07:12:13;100150.54;;;16.92;65.93
59315;BME280;46521;50.160;20.802;2022-10-16T07:22:14;100158.63;;;17.61;64.80
59315;BME280;46521;50.160;20.802;2022-10-16T07:32:16;100166.16;;;18.12;63.85
59315;BME280;46521;50.160;20.802;2022-10-16T07:42:17;100163.06;;;18.29;62.93
59315;BME280;46521;50.160;20.802;2022-10-16T07:52:18;100180.54;;;18.78;62.21
59315;BME280;46521;50.160;20.802;2022-10-16T08:02:20;100176.28;;;19.36;61.46
59315;BME280;46521;50.160;20.802;2022-10-16T08:12:21;100187.19;;;19.86;60.36
59315;BME280;46521;50.160;20.802;2022-10-16T08:22:22;100178.63;;;19.57;59.54
59315;BME280;46521;50.160;20.802;2022-10-16T08:32:24;100180.76;;;19.87;59.70
59315;BME280;46521;50.160;20.802;2022-10-16T08:52:45;100193.32;;;19.48;58.33
59315;BME280;46521;50.160;20.802;2022-10-16T09:02:52;100197.38;;;19.12;58.18
59315;BME280;46521;50.160;20.802;2022-10-16T09:13:17;100189.41;;;18.92;58.46
59315;BME280;46521;50.160;20.802;2022-10-16T09:23:28;100196.61;;;18.91;58.22
59315;BME280;46521;50.160;20.802;2022-10-16T09:33:35;100200.30;;;19.04;58.13
59315;BME280;46521;50.160;20.802;2022-10-16T09:43:59;100204.39;;;19.13;58.11
59315;BME280;46521;50.160;20.802;2022-10-16T09:54:21;100208.46;;;19.29;57.78
59315;BME280;46521;50.160;20.802;2022-10-16T10:04:23;100208.07;;;19.25;57.24
59315;BME280;46521;50.160;20.802;2022-10-16T10:14:38;100205.39;;;19.25;57.04
59315;BME280;46521;50.160;20.802;2022-10-16T10:24:40;100217.41;;;19.09;57.08
59315;BME280;46521;50.160;20.802;2022-10-16T11:05:41;100197.06;;;19.47;56.43
59315;BME280;46521;50.160;20.802;2022-10-16T11:15:46;100198.37;;;19.76;56.11
59315;BME280;46521;50.160;20.802;2022-10-16T11:25:48;100187.78;;;19.88;55.90
59315;BME280;46521;50.160;20.802;2022-10-16T11:46:20;100186.89;;;19.56;55.77
59315;BME280;46521;50.160;20.802;2022-10-16T11:56:23;100183.69;;;19.34;55.82
59315;BME280;46521;50.160;20.802;2022-10-16T12:06:37;100187.85;;;19.30;55.81
59315;BME280;46521;50.160;20.802;2022-10-16T12:17:02;100183.76;;;19.20;55.55
59315;BME280;46521;50.160;20.802;2022-10-16T12:27:28;100189.13;;;19.14;56.01
59315;BME280;46521;50.160;20.802;2022-10-16T12:37:34;100187.47;;;19.19;56.35
59315;BME280;46521;50.160;20.802;2022-10-16T12:47:47;100194.63;;;19.39;56.08
59315;BME280;46521;50.160;20.802;2022-10-16T13:08:50;100199.22;;;19.18;56.10
59315;BME280;46521;50.160;20.802;2022-10-16T13:29:20;100196.80;;;19.03;56.28
59315;BME280;46521;50.160;20.802;2022-10-16T13:39:28;100203.20;;;18.96;56.65
59315;BME280;46521;50.160;20.802;2022-10-16T13:49:30;100213.10;;;18.88;56.64
59315;BME280;46521;50.160;20.802;2022-10-16T13:59:36;100225.90;;;18.86;56.48
59315;BME280;46521;50.160;20.802;2022-10-16T14:09:38;100232.28;;;18.85;56.68
59315;BME280;46521;50.160;20.802;2022-10-16T14:19:40;100237.02;;;18.77;56.85
59315;BME280;46521;50.160;20.802;2022-10-16T14:29:46;100240.13;;;18.67;57.02
59315;BME280;46521;50.160;20.802;2022-10-16T14:39:51;100251.84;;;18.52;57.36
59315;BME280;46521;50.160;20.802;2022-10-16T14:49:54;100244.23;;;18.36;57.56
59315;BME280;46521;50.160;20.802;2022-10-16T14:59:57;100239.89;;;18.22;58.09
59315;BME280;46521;50.160;20.802;2022-10-16T15:09:58;100261.27;;;18.08;58.66
59315;BME280;46521;50.160;20.802;2022-10-16T15:19:59;100257.53;;;17.96;59.03
59315;BME280;46521;50.160;20.802;2022-10-16T15:30:01;100242.84;;;17.78;59.12
59315;BME280;46521;50.160;20.802;2022-10-16T15:40:02;100240.48;;;17.55;59.37
59315;BME280;46521;50.160;20.802;2022-10-16T15:50:05;100256.45;;;17.35;59.61
59315;BME280;46521;50.160;20.802;2022-10-16T16:00:09;100268.66;;;17.16;60.31
59315;BME280;46521;50.160;20.802;2022-10-16T16:10:11;100280.48;;;17.00;60.38
59315;BME280;46521;50.160;20.802;2022-10-16T16:20:13;100304.34;;;16.80;60.59
59315;BME280;46521;50.160;20.802;2022-10-16T16:30:14;100317.92;;;16.57;60.51
59315;BME280;46521;50.160;20.802;2022-10-16T16:40:16;100334.55;;;16.37;61.11
59315;BME280;46521;50.160;20.802;2022-10-16T16:50:17;100347.48;;;16.19;61.11
59315;BME280;46521;50.160;20.802;2022-10-16T17:00:19;100356.64;;;16.10;61.43
59315;BME280;46521;50.160;20.802;2022-10-16T17:10:20;100357.39;;;16.03;61.74
59315;BME280;46521;50.160;20.802;2022-10-16T17:20:21;100357.09;;;15.98;61.37
59315;BME280;46521;50.160;20.802;2022-10-16T17:30:24;100383.52;;;15.93;61.59
59315;BME280;46521;50.160;20.802;2022-10-16T17:40:25;100397.95;;;15.84;61.54
59315;BME280;46521;50.160;20.802;2022-10-16T17:50:27;100391.39;;;15.72;61.69
59315;BME280;46521;50.160;20.802;2022-10-16T18:00:28;100398.84;;;15.61;61.75
59315;BME280;46521;50.160;20.802;2022-10-16T18:10:29;100404.60;;;15.50;61.69
59315;BME280;46521;50.160;20.802;2022-10-16T18:20:31;100420.69;;;15.42;61.81
59315;BME280;46521;50.160;20.802;2022-10-16T18:30:32;100424.61;;;15.31;61.86
59315;BME280;46521;50.160;20.802;2022-10-16T18:40:35;100430.55;;;15.18;61.75
59315;BME280;46521;50.160;20.802;2022-10-16T18:50:36;100458.97;;;15.03;62.01
59315;BME280;46521;50.160;20.802;2022-10-16T19:00:37;100466.91;;;14.88;62.31
59315;BME280;46521;50.160;20.802;2022-10-16T19:10:39;100474.95;;;14.80;62.53
59315;BME280;46521;50.160;20.802;2022-10-16T19:20:42;100490.78;;;14.73;62.74
59315;BME280;46521;50.160;20.802;2022-10-16T19:30:43;100510.79;;;14.69;62.78
59315;BME280;46521;50.160;20.802;2022-10-16T19:40:47;100520.64;;;14.52;63.26
59315;BME280;46521;50.160;20.802;2022-10-16T19:50:48;100532.19;;;14.36;63.05
59315;BME280;46521;50.160;20.802;2022-10-16T20:00:50;100539.34;;;14.27;63.14
59315;BME280;46521;50.160;20.802;2022-10-16T20:10:53;100539.03;;;14.22;63.36
59315;BME280;46521;50.160;20.802;2022-10-16T20:20:54;100547.69;;;14.16;63.37
59315;BME280;46521;50.160;20.802;2022-10-16T20:30:56;100545.70;;;14.10;63.47
59315;BME280;46521;50.160;20.802;2022-10-16T20:41:02;100567.01;;;14.01;63.42
59315;BME280;46521;50.160;20.802;2022-10-16T20:51:30;100572.97;;;13.87;63.66
59315;BME280;46521;50.160;20.802;2022-10-16T21:01:31;100584.80;;;13.76;63.67
59315;BME280;46521;50.160;20.802;2022-10-16T21:11:36;100604.23;;;13.68;63.52
59315;BME280;46521;50.160;20.802;2022-10-16T21:21:38;100603.06;;;13.63;63.70
59315;BME280;46521;50.160;20.802;2022-10-16T21:31:40;100622.64;;;13.54;63.99
59315;BME280;46521;50.160;20.802;2022-10-16T21:41:43;100630.44;;;13.39;63.92
59315;BME280;46521;50.160;20.802;2022-10-16T21:51:47;100630.52;;;13.29;64.15
59315;BME280;46521;50.160;20.802;2022-10-16T22:02:14;100645.28;;;13.15;64.25
59315;BME280;46521;50.160;20.802;2022-10-16T22:12:15;100652.05;;;13.09;64.55
59315;BME280;46521;50.160;20.802;2022-10-16T22:22:19;100650.66;;;12.97;64.62
59315;BME280;46521;50.160;20.802;2022-10-16T22:32:20;100662.87;;;12.82;65.23
59315;BME280;46521;50.160;20.802;2022-10-16T22:42:22;100665.33;;;12.75;65.08
59315;BME280;46521;50.160;20.802;2022-10-16T22:52:23;100665.80;;;12.70;64.95
59315;BME280;46521;50.160;20.802;2022-10-16T23:02:25;100677.34;;;12.61;65.15
59315;BME280;46521;50.160;20.802;2022-10-16T23:12:26;100686.59;;;12.57;65.63
59315;BME280;46521;50.160;20.802;2022-10-16T23:22:27;100689.05;;;12.50;65.71
59315;BME280;46521;50.160;20.802;2022-10-16T23:32:28;100697.93;;;12.41;65.22
